sensor_id;sensor_type;location;lat;lon;timestamp;temperature;humidity
13426;DHT22;6785;57.918;12.530;2024-02-16T00:02:01;5.40;99.90
13426;DHT22;6785;57.918;12.530;2024-02-16T00:04:28;5.40;99.90
13426;DHT22;6785;57.918;12.530;2024-02-16T00:06:55;5.30;99.90
13426;DHT22;6785;57.918;12.530;2024-02-16T00:09:22;5.30;99.90
13426;DHT22;6785;57.918;12.530;2024-02-16T00:11:48;5.30;99.90
13426;DHT22;6785;57.918;12.530;2024-02-16T00:14:16;5.40;99.90
13426;DHT22;6785;57.918;12.530;2024-02-16T00:16:44;5.40;99.90
13426;DHT22;6785;57.918;12.530;2024-02-16T00:19:11;5.40;99.90
13426;DHT22;6785;57.918;12.530;2024-02-16T00:21:38;5.50;99.90
13426;DHT22;6785;57.918;12.530;2024-02-16T00:24:07;5.50;99.90
13426;DHT22;6785;57.918;12.530;2024-02-16T00:26:34;5.50;99.90
13426;DHT22;6785;57.918;12.530;2024-02-16T00:29:01;5.60;99.90
13426;DHT22;6785;57.918;12.530;2024-02-16T00:31:27;5.40;99.90
13426;DHT22;6785;57.918;12.530;2024-02-16T00:33:57;5.40;99.90
13426;DHT22;6785;57.918;12.530;2024-02-16T00:36:23;5.40;99.90
13426;DHT22;6785;57.918;12.530;2024-02-16T00:38:50;5.40;99.90
13426;DHT22;6785;57.918;12.530;2024-02-16T00:41:19;5.50;99.90
13426;DHT22;6785;57.918;12.530;2024-02-16T00:43:46;5.50;99.90
13426;DHT22;6785;57.918;12.530;2024-02-16T00:46:12;5.50;99.90
13426;DHT22;6785;57.918;12.530;2024-02-16T00:48:39;5.60;99.90
13426;DHT22;6785;57.918;12.530;2024-02-16T00:51:07;5.60;99.90
13426;DHT22;6785;57.918;12.530;2024-02-16T00:53:34;5.60;99.90
13426;DHT22;6785;57.918;12.530;2024-02-16T00:56:01;5.60;99.90
13426;DHT22;6785;57.918;12.530;2024-02-16T00:58:28;5.70;99.90
13426;DHT22;6785;57.918;12.530;2024-02-16T01:00:55;5.70;99.90
13426;DHT22;6785;57.918;12.530;2024-02-16T01:03:22;5.70;99.90
13426;DHT22;6785;57.918;12.530;2024-02-16T01:05:49;5.70;99.90
13426;DHT22;6785;57.918;12.530;2024-02-16T01:08:17;5.70;99.90
13426;DHT22;6785;57.918;12.530;2024-02-16T01:10:44;5.70;99.90
13426;DHT22;6785;57.918;12.530;2024-02-16T01:13:12;5.80;99.90
13426;DHT22;6785;57.918;12.530;2024-02-16T01:15:38;5.80;99.90
13426;DHT22;6785;57.918;12.530;2024-02-16T01:18:06;5.90;99.90
13426;DHT22;6785;57.918;12.530;2024-02-16T01:20:33;5.90;99.90
13426;DHT22;6785;57.918;12.530;2024-02-16T01:23:00;5.90;99.90
13426;DHT22;6785;57.918;12.530;2024-02-16T01:25:28;5.90;99.90
13426;DHT22;6785;57.918;12.530;2024-02-16T01:27:55;5.90;99.90
13426;DHT22;6785;57.918;12.530;2024-02-16T01:30:22;5.90;99.90
13426;DHT22;6785;57.918;12.530;2024-02-16T01:32:48;5.90;99.90
13426;DHT22;6785;57.918;12.530;2024-02-16T01:35:15;5.90;99.90
13426;DHT22;6785;57.918;12.530;2024-02-16T01:37:42;5.90;99.90
13426;DHT22;6785;57.918;12.530;2024-02-16T01:40:10;5.90;99.90
13426;DHT22;6785;57.918;12.530;2024-02-16T01:42:40;6.00;99.90
13426;DHT22;6785;57.918;12.530;2024-02-16T01:45:08;6.00;99.90
13426;DHT22;6785;57.918;12.530;2024-02-16T01:47:35;6.00;99.90
13426;DHT22;6785;57.918;12.530;2024-02-16T01:50:03;6.00;99.90
13426;DHT22;6785;57.918;12.530;2024-02-16T01:52:30;6.00;99.90
13426;DHT22;6785;57.918;12.530;2024-02-16T01:54:59;6.00;99.90
13426;DHT22;6785;57.918;12.530;2024-02-16T01:57:28;6.00;99.90
13426;DHT22;6785;57.918;12.530;2024-02-16T01:59:57;6.00;99.90
13426;DHT22;6785;57.918;12.530;2024-02-16T02:02:24;6.00;99.90
13426;DHT22;6785;57.918;12.530;2024-02-16T02:04:51;6.10;99.90
13426;DHT22;6785;57.918;12.530;2024-02-16T02:07:18;6.10;99.90
13426;DHT22;6785;57.918;12.530;2024-02-16T02:09:47;6.20;99.90
13426;DHT22;6785;57.918;12.530;2024-02-16T02:12:14;6.30;99.90
13426;DHT22;6785;57.918;12.530;2024-02-16T02:14:40;6.30;99.90
13426;DHT22;6785;57.918;12.530;2024-02-16T02:17:08;6.40;99.90
13426;DHT22;6785;57.918;12.530;2024-02-16T02:19:35;6.40;99.90
13426;DHT22;6785;57.918;12.530;2024-02-16T02:22:03;6.30;99.90
13426;DHT22;6785;57.918;12.530;2024-02-16T02:24:31;6.30;99.90
13426;DHT22;6785;57.918;12.530;2024-02-16T02:26:58;6.40;99.90
13426;DHT22;6785;57.918;12.530;2024-02-16T02:29:25;6.40;99.90
13426;DHT22;6785;57.918;12.530;2024-02-16T02:31:52;6.50;99.90
13426;DHT22;6785;57.918;12.530;2024-02-16T02:34:19;6.50;99.90
13426;DHT22;6785;57.918;12.530;2024-02-16T02:36:46;6.50;99.90
13426;DHT22;6785;57.918;12.530;2024-02-16T02:39:13;6.60;99.90
13426;DHT22;6785;57.918;12.530;2024-02-16T02:41:41;6.60;99.90
13426;DHT22;6785;57.918;12.530;2024-02-16T02:44:08;6.60;99.90
13426;DHT22;6785;57.918;12.530;2024-02-16T02:46:36;6.60;99.90
13426;DHT22;6785;57.918;12.530;2024-02-16T02:49:03;6.60;99.90
13426;DHT22;6785;57.918;12.530;2024-02-16T02:51:30;6.70;99.90
13426;DHT22;6785;57.918;12.530;2024-02-16T02:53:57;6.70;99.90
13426;DHT22;6785;57.918;12.530;2024-02-16T02:56:24;6.70;99.90
13426;DHT22;6785;57.918;12.530;2024-02-16T02:58:52;6.70;99.90
13426;DHT22;6785;57.918;12.530;2024-02-16T03:01:19;6.70;99.90
13426;DHT22;6785;57.918;12.530;2024-02-16T03:03:47;6.80;99.90
13426;DHT22;6785;57.918;12.530;2024-02-16T03:06:17;6.80;99.90
13426;DHT22;6785;57.918;12.530;2024-02-16T03:08:44;6.80;99.90
13426;DHT22;6785;57.918;12.530;2024-02-16T03:11:11;6.90;99.90
13426;DHT22;6785;57.918;12.530;2024-02-16T03:13:38;6.90;99.90
13426;DHT22;6785;57.918;12.530;2024-02-16T03:16:07;6.90;99.90
13426;DHT22;6785;57.918;12.530;2024-02-16T03:18:34;6.90;99.90
13426;DHT22;6785;57.918;12.530;2024-02-16T03:21:01;7.00;99.90
13426;DHT22;6785;57.918;12.530;2024-02-16T03:23:28;7.10;99.90
13426;DHT22;6785;57.918;12.530;2024-02-16T03:25:54;7.10;99.90
13426;DHT22;6785;57.918;12.530;2024-02-16T03:28:21;7.10;99.90
13426;DHT22;6785;57.918;12.530;2024-02-16T03:30:48;7.20;99.90
13426;DHT22;6785;57.918;12.530;2024-02-16T03:33:16;7.20;99.90
13426;DHT22;6785;57.918;12.530;2024-02-16T03:35:43;7.20;99.90
13426;DHT22;6785;57.918;12.530;2024-02-16T03:38:10;7.20;99.90
13426;DHT22;6785;57.918;12.530;2024-02-16T03:40:37;7.30;99.90
13426;DHT22;6785;57.918;12.530;2024-02-16T03:43:04;7.30;99.90
13426;DHT22;6785;57.918;12.530;2024-02-16T03:45:31;7.40;99.90
13426;DHT22;6785;57.918;12.530;2024-02-16T03:47:58;7.40;99.90
13426;DHT22;6785;57.918;12.530;2024-02-16T03:50:26;7.30;99.90
13426;DHT22;6785;57.918;12.530;2024-02-16T03:52:53;7.30;99.90
13426;DHT22;6785;57.918;12.530;2024-02-16T03:55:20;7.40;99.90
13426;DHT22;6785;57.918;12.530;2024-02-16T03:57:47;7.40;99.90
13426;DHT22;6785;57.918;12.530;2024-02-16T04:00:14;7.40;99.90
13426;DHT22;6785;57.918;12.530;2024-02-16T04:02:41;7.50;99.90
13426;DHT22;6785;57.918;12.530;2024-02-16T04:05:08;7.60;99.90
13426;DHT22;6785;57.918;12.530;2024-02-16T04:07:37;7.60;99.90
13426;DHT22;6785;57.918;12.530;2024-02-16T04:10:04;7.70;99.90
13426;DHT22;6785;57.918;12.530;2024-02-16T04:12:32;7.70;99.90
13426;DHT22;6785;57.918;12.530;2024-02-16T04:14:59;7.60;99.90
13426;DHT22;6785;57.918;12.530;2024-02-16T04:17:26;7.70;99.90
13426;DHT22;6785;57.918;12.530;2024-02-16T04:19:53;7.70;99.90
13426;DHT22;6785;57.918;12.530;2024-02-16T04:22:19;7.70;99.90
13426;DHT22;6785;57.918;12.530;2024-02-16T04:24:48;7.70;99.90
13426;DHT22;6785;57.918;12.530;2024-02-16T04:27:15;7.70;99.90
13426;DHT22;6785;57.918;12.530;2024-02-16T04:29:42;7.60;99.90
13426;DHT22;6785;57.918;12.530;2024-02-16T04:32:09;7.70;99.90
13426;DHT22;6785;57.918;12.530;2024-02-16T04:34:36;7.80;99.90
13426;DHT22;6785;57.918;12.530;2024-02-16T04:37:03;7.70;99.90
13426;DHT22;6785;57.918;12.530;2024-02-16T04:39:29;7.70;99.90
13426;DHT22;6785;57.918;12.530;2024-02-16T04:41:58;7.70;99.90
13426;DHT22;6785;57.918;12.530;2024-02-16T04:44:24;7.80;99.90
13426;DHT22;6785;57.918;12.530;2024-02-16T04:46:52;7.80;99.90
13426;DHT22;6785;57.918;12.530;2024-02-16T04:49:19;7.90;99.90
13426;DHT22;6785;57.918;12.530;2024-02-16T04:51:47;7.90;99.90
13426;DHT22;6785;57.918;12.530;2024-02-16T04:54:15;7.90;99.90
13426;DHT22;6785;57.918;12.530;2024-02-16T04:56:42;8.00;99.90
13426;DHT22;6785;57.918;12.530;2024-02-16T04:59:10;8.00;99.90
13426;DHT22;6785;57.918;12.530;2024-02-16T05:01:37;8.00;99.90
13426;DHT22;6785;57.918;12.530;2024-02-16T05:04:04;8.00;99.90
13426;DHT22;6785;57.918;12.530;2024-02-16T05:06:30;8.00;99.90
13426;DHT22;6785;57.918;12.530;2024-02-16T05:08:57;8.00;99.90
13426;DHT22;6785;57.918;12.530;2024-02-16T05:11:24;8.00;99.90
13426;DHT22;6785;57.918;12.530;2024-02-16T05:13:52;8.00;99.90
13426;DHT22;6785;57.918;12.530;2024-02-16T05:16:20;7.90;99.90
13426;DHT22;6785;57.918;12.530;2024-02-16T05:18:47;8.00;99.90
13426;DHT22;6785;57.918;12.530;2024-02-16T05:21:14;8.00;99.90
13426;DHT22;6785;57.918;12.530;2024-02-16T05:23:41;8.00;99.90
13426;DHT22;6785;57.918;12.530;2024-02-16T05:26:07;8.00;99.90
13426;DHT22;6785;57.918;12.530;2024-02-16T05:28:34;8.00;99.90
13426;DHT22;6785;57.918;12.530;2024-02-16T05:31:13;8.00;99.90
13426;DHT22;6785;57.918;12.530;2024-02-16T05:33:42;8.10;99.90
13426;DHT22;6785;57.918;12.530;2024-02-16T05:36:10;8.10;99.90
13426;DHT22;6785;57.918;12.530;2024-02-16T05:38:37;8.10;99.90
13426;DHT22;6785;57.918;12.530;2024-02-16T05:41:08;8.10;99.90
13426;DHT22;6785;57.918;12.530;2024-02-16T05:43:36;8.20;99.90
13426;DHT22;6785;57.918;12.530;2024-02-16T05:46:03;8.20;99.90
13426;DHT22;6785;57.918;12.530;2024-02-16T05:48:32;8.30;99.90
13426;DHT22;6785;57.918;12.530;2024-02-16T05:51:02;8.40;99.90
13426;DHT22;6785;57.918;12.530;2024-02-16T05:53:28;8.40;99.90
13426;DHT22;6785;57.918;12.530;2024-02-16T05:55:55;8.40;99.90
13426;DHT22;6785;57.918;12.530;2024-02-16T05:58:22;8.40;99.90
13426;DHT22;6785;57.918;12.530;2024-02-16T06:00:49;8.40;99.90
13426;DHT22;6785;57.918;12.530;2024-02-16T06:03:16;8.40;99.90
13426;DHT22;6785;57.918;12.530;2024-02-16T06:05:43;8.40;99.90
13426;DHT22;6785;57.918;12.530;2024-02-16T06:08:12;8.40;99.90
13426;DHT22;6785;57.918;12.530;2024-02-16T06:10:41;8.50;99.90
13426;DHT22;6785;57.918;12.530;2024-02-16T06:13:08;8.50;99.90
13426;DHT22;6785;57.918;12.530;2024-02-16T06:15:35;8.60;99.90
13426;DHT22;6785;57.918;12.530;2024-02-16T06:18:03;8.60;99.90
13426;DHT22;6785;57.918;12.530;2024-02-16T06:20:30;8.60;99.90
13426;DHT22;6785;57.918;12.530;2024-02-16T06:22:56;8.60;99.90
13426;DHT22;6785;57.918;12.530;2024-02-16T06:25:24;8.70;99.90
13426;DHT22;6785;57.918;12.530;2024-02-16T06:27:51;8.70;99.90
13426;DHT22;6785;57.918;12.530;2024-02-16T06:30:18;8.70;99.90
13426;DHT22;6785;57.918;12.530;2024-02-16T06:32:45;8.80;99.90
13426;DHT22;6785;57.918;12.530;2024-02-16T06:35:13;8.80;99.90
13426;DHT22;6785;57.918;12.530;2024-02-16T06:37:40;8.80;99.90
13426;DHT22;6785;57.918;12.530;2024-02-16T06:40:07;8.80;99.90
13426;DHT22;6785;57.918;12.530;2024-02-16T06:42:37;8.70;99.90
13426;DHT22;6785;57.918;12.530;2024-02-16T06:45:05;8.80;99.90
13426;DHT22;6785;57.918;12.530;2024-02-16T06:47:32;8.70;99.90
13426;DHT22;6785;57.918;12.530;2024-02-16T06:49:59;8.60;99.90
13426;DHT22;6785;57.918;12.530;2024-02-16T06:52:26;8.80;99.90
13426;DHT22;6785;57.918;12.530;2024-02-16T06:54:53;8.80;99.90
13426;DHT22;6785;57.918;12.530;2024-02-16T06:57:20;8.80;99.90
13426;DHT22;6785;57.918;12.530;2024-02-16T06:59:49;8.90;99.90
13426;DHT22;6785;57.918;12.530;2024-02-16T07:02:16;8.90;99.90
13426;DHT22;6785;57.918;12.530;2024-02-16T07:04:43;8.90;99.90
13426;DHT22;6785;57.918;12.530;2024-02-16T07:07:11;8.90;99.90
13426;DHT22;6785;57.918;12.530;2024-02-16T07:09:37;8.90;99.90
13426;DHT22;6785;57.918;12.530;2024-02-16T07:12:05;8.90;99.90
13426;DHT22;6785;57.918;12.530;2024-02-16T07:14:33;8.90;99.90
13426;DHT22;6785;57.918;12.530;2024-02-16T07:17:01;9.00;99.90
13426;DHT22;6785;57.918;12.530;2024-02-16T07:19:28;8.90;99.90
13426;DHT22;6785;57.918;12.530;2024-02-16T07:21:55;8.90;99.90
13426;DHT22;6785;57.918;12.530;2024-02-16T07:24:22;9.00;99.90
13426;DHT22;6785;57.918;12.530;2024-02-16T07:26:49;9.00;99.90
13426;DHT22;6785;57.918;12.530;2024-02-16T07:29:15;9.00;99.90
13426;DHT22;6785;57.918;12.530;2024-02-16T07:31:43;9.00;99.90
13426;DHT22;6785;57.918;12.530;2024-02-16T07:34:11;8.90;99.90
13426;DHT22;6785;57.918;12.530;2024-02-16T07:36:38;9.00;99.90
13426;DHT22;6785;57.918;12.530;2024-02-16T07:39:04;9.00;99.90
13426;DHT22;6785;57.918;12.530;2024-02-16T07:41:31;9.00;99.90
13426;DHT22;6785;57.918;12.530;2024-02-16T07:43:58;9.10;99.90
13426;DHT22;6785;57.918;12.530;2024-02-16T07:46:25;9.10;99.90
13426;DHT22;6785;57.918;12.530;2024-02-16T07:48:52;9.00;99.90
13426;DHT22;6785;57.918;12.530;2024-02-16T07:51:20;9.10;99.90
13426;DHT22;6785;57.918;12.530;2024-02-16T07:53:47;9.10;99.90
13426;DHT22;6785;57.918;12.530;2024-02-16T07:56:14;9.10;99.90
13426;DHT22;6785;57.918;12.530;2024-02-16T07:58:41;9.10;99.90
13426;DHT22;6785;57.918;12.530;2024-02-16T08:01:11;9.10;99.90
13426;DHT22;6785;57.918;12.530;2024-02-16T08:03:40;9.10;99.90
13426;DHT22;6785;57.918;12.530;2024-02-16T08:06:07;9.10;99.90
13426;DHT22;6785;57.918;12.530;2024-02-16T08:08:36;9.10;99.90
13426;DHT22;6785;57.918;12.530;2024-02-16T08:11:03;9.10;99.90
13426;DHT22;6785;57.918;12.530;2024-02-16T08:13:29;9.10;99.90
13426;DHT22;6785;57.918;12.530;2024-02-16T08:15:56;9.10;99.90
13426;DHT22;6785;57.918;12.530;2024-02-16T08:18:23;9.20;99.90
13426;DHT22;6785;57.918;12.530;2024-02-16T08:20:50;9.20;99.90
13426;DHT22;6785;57.918;12.530;2024-02-16T08:23:17;9.30;99.90
13426;DHT22;6785;57.918;12.530;2024-02-16T08:25:45;9.30;99.90
13426;DHT22;6785;57.918;12.530;2024-02-16T08:28:12;9.30;99.90
13426;DHT22;6785;57.918;12.530;2024-02-16T08:30:39;9.30;99.90
13426;DHT22;6785;57.918;12.530;2024-02-16T08:33:07;9.40;99.90
13426;DHT22;6785;57.918;12.530;2024-02-16T08:35:34;9.40;99.90
13426;DHT22;6785;57.918;12.530;2024-02-16T08:38:00;9.40;99.90
13426;DHT22;6785;57.918;12.530;2024-02-16T08:40:27;9.40;99.90
13426;DHT22;6785;57.918;12.530;2024-02-16T08:42:56;9.50;99.90
13426;DHT22;6785;57.918;12.530;2024-02-16T08:45:24;9.50;99.90
13426;DHT22;6785;57.918;12.530;2024-02-16T08:47:51;9.60;99.90
13426;DHT22;6785;57.918;12.530;2024-02-16T08:50:18;9.50;99.90
13426;DHT22;6785;57.918;12.530;2024-02-16T08:52:44;9.60;99.90
13426;DHT22;6785;57.918;12.530;2024-02-16T08:55:12;9.60;99.90
13426;DHT22;6785;57.918;12.530;2024-02-16T08:57:38;9.60;99.90
13426;DHT22;6785;57.918;12.530;2024-02-16T09:00:08;9.60;99.90
13426;DHT22;6785;57.918;12.530;2024-02-16T09:02:35;9.60;99.90
13426;DHT22;6785;57.918;12.530;2024-02-16T09:05:02;9.60;99.90
13426;DHT22;6785;57.918;12.530;2024-02-16T09:07:29;9.60;99.90
13426;DHT22;6785;57.918;12.530;2024-02-16T09:09:56;9.60;99.90
13426;DHT22;6785;57.918;12.530;2024-02-16T09:12:23;9.70;99.90
13426;DHT22;6785;57.918;12.530;2024-02-16T09:14:50;9.70;99.90
13426;DHT22;6785;57.918;12.530;2024-02-16T09:17:18;9.70;99.90
13426;DHT22;6785;57.918;12.530;2024-02-16T09:19:46;9.90;99.90
13426;DHT22;6785;57.918;12.530;2024-02-16T09:22:13;9.90;99.90
13426;DHT22;6785;57.918;12.530;2024-02-16T09:24:40;9.90;99.90
13426;DHT22;6785;57.918;12.530;2024-02-16T09:27:07;10.00;99.90
13426;DHT22;6785;57.918;12.530;2024-02-16T09:29:35;9.90;99.90
13426;DHT22;6785;57.918;12.530;2024-02-16T09:32:02;10.00;99.90
13426;DHT22;6785;57.918;12.530;2024-02-16T09:34:31;10.10;99.90
13426;DHT22;6785;57.918;12.530;2024-02-16T09:36:58;10.10;99.90
13426;DHT22;6785;57.918;12.530;2024-02-16T09:39:24;10.20;99.90
13426;DHT22;6785;57.918;12.530;2024-02-16T09:41:54;10.20;99.90
13426;DHT22;6785;57.918;12.530;2024-02-16T09:44:21;10.30;99.90
13426;DHT22;6785;57.918;12.530;2024-02-16T09:46:48;10.30;99.90
13426;DHT22;6785;57.918;12.530;2024-02-16T09:49:15;10.40;99.90
13426;DHT22;6785;57.918;12.530;2024-02-16T09:51:44;10.40;99.90
13426;DHT22;6785;57.918;12.530;2024-02-16T09:54:11;10.40;99.90
13426;DHT22;6785;57.918;12.530;2024-02-16T09:56:38;10.40;99.90
13426;DHT22;6785;57.918;12.530;2024-02-16T09:59:05;10.40;99.90
13426;DHT22;6785;57.918;12.530;2024-02-16T10:01:34;10.40;99.90
13426;DHT22;6785;57.918;12.530;2024-02-16T10:04:05;10.50;99.90
13426;DHT22;6785;57.918;12.530;2024-02-16T10:06:33;10.50;99.90
13426;DHT22;6785;57.918;12.530;2024-02-16T10:09:01;10.50;99.90
13426;DHT22;6785;57.918;12.530;2024-02-16T10:11:32;10.40;99.90
13426;DHT22;6785;57.918;12.530;2024-02-16T10:13:59;10.50;99.90
13426;DHT22;6785;57.918;12.530;2024-02-16T10:16:27;10.50;99.90
13426;DHT22;6785;57.918;12.530;2024-02-16T10:18:55;10.40;99.90
13426;DHT22;6785;57.918;12.530;2024-02-16T10:21:25;10.50;99.90
13426;DHT22;6785;57.918;12.530;2024-02-16T10:24:02;10.60;99.90
13426;DHT22;6785;57.918;12.530;2024-02-16T10:26:30;10.70;99.90
13426;DHT22;6785;57.918;12.530;2024-02-16T10:28:57;10.70;99.90
13426;DHT22;6785;57.918;12.530;2024-02-16T10:31:25;10.80;99.90
13426;DHT22;6785;57.918;12.530;2024-02-16T10:33:59;10.90;99.90
13426;DHT22;6785;57.918;12.530;2024-02-16T10:36:27;10.90;99.90
13426;DHT22;6785;57.918;12.530;2024-02-16T10:38:55;10.90;99.90
13426;DHT22;6785;57.918;12.530;2024-02-16T10:41:26;10.90;99.90
13426;DHT22;6785;57.918;12.530;2024-02-16T10:43:55;11.00;99.90
13426;DHT22;6785;57.918;12.530;2024-02-16T10:46:23;11.00;99.90
13426;DHT22;6785;57.918;12.530;2024-02-16T10:48:51;11.00;99.90
13426;DHT22;6785;57.918;12.530;2024-02-16T10:51:23;11.00;99.90
13426;DHT22;6785;57.918;12.530;2024-02-16T10:53:52;11.10;99.90
13426;DHT22;6785;57.918;12.530;2024-02-16T10:56:32;11.00;99.90
13426;DHT22;6785;57.918;12.530;2024-02-16T10:59:01;10.70;99.90
13426;DHT22;6785;57.918;12.530;2024-02-16T11:01:32;10.80;99.90
13426;DHT22;6785;57.918;12.530;2024-02-16T11:04:03;10.80;99.90
13426;DHT22;6785;57.918;12.530;2024-02-16T11:06:30;10.60;99.90
13426;DHT22;6785;57.918;12.530;2024-02-16T11:09:01;10.60;99.90
13426;DHT22;6785;57.918;12.530;2024-02-16T11:11:34;10.50;99.90
13426;DHT22;6785;57.918;12.530;2024-02-16T11:14:02;10.50;99.90
13426;DHT22;6785;57.918;12.530;2024-02-16T11:16:29;10.40;99.90
13426;DHT22;6785;57.918;12.530;2024-02-16T11:18:56;10.40;99.90
13426;DHT22;6785;57.918;12.530;2024-02-16T11:21:23;10.30;99.90
13426;DHT22;6785;57.918;12.530;2024-02-16T11:23:51;10.30;99.90
13426;DHT22;6785;57.918;12.530;2024-02-16T11:26:18;10.30;99.90
13426;DHT22;6785;57.918;12.530;2024-02-16T11:28:46;10.30;99.90
13426;DHT22;6785;57.918;12.530;2024-02-16T11:31:13;10.30;99.90
13426;DHT22;6785;57.918;12.530;2024-02-16T11:33:43;10.20;99.90
13426;DHT22;6785;57.918;12.530;2024-02-16T11:36:10;10.20;99.90
13426;DHT22;6785;57.918;12.530;2024-02-16T11:38:37;10.20;99.90
13426;DHT22;6785;57.918;12.530;2024-02-16T11:41:05;10.20;99.90
13426;DHT22;6785;57.918;12.530;2024-02-16T11:43:33;10.20;99.90
13426;DHT22;6785;57.918;12.530;2024-02-16T11:46:12;10.10;99.90
13426;DHT22;6785;57.918;12.530;2024-02-16T11:48:39;10.10;99.90
13426;DHT22;6785;57.918;12.530;2024-02-16T11:51:06;10.10;99.90
13426;DHT22;6785;57.918;12.530;2024-02-16T11:53:33;10.10;99.90
13426;DHT22;6785;57.918;12.530;2024-02-16T11:56:00;10.10;99.90
13426;DHT22;6785;57.918;12.530;2024-02-16T11:58:27;10.10;99.90
13426;DHT22;6785;57.918;12.530;2024-02-16T12:00:56;10.20;99.90
13426;DHT22;6785;57.918;12.530;2024-02-16T12:03:26;10.10;99.90
13426;DHT22;6785;57.918;12.530;2024-02-16T12:05:54;10.10;99.90
13426;DHT22;6785;57.918;12.530;2024-02-16T12:08:22;10.10;99.90
13426;DHT22;6785;57.918;12.530;2024-02-16T12:10:50;10.10;99.90
13426;DHT22;6785;57.918;12.530;2024-02-16T12:13:18;10.00;99.90
13426;DHT22;6785;57.918;12.530;2024-02-16T12:15:46;10.00;99.90
13426;DHT22;6785;57.918;12.530;2024-02-16T12:18:20;10.00;99.90
13426;DHT22;6785;57.918;12.530;2024-02-16T12:21:01;9.90;99.90
13426;DHT22;6785;57.918;12.530;2024-02-16T12:23:29;9.90;99.90
13426;DHT22;6785;57.918;12.530;2024-02-16T12:25:56;9.90;99.90
13426;DHT22;6785;57.918;12.530;2024-02-16T12:28:24;9.80;99.90
13426;DHT22;6785;57.918;12.530;2024-02-16T12:30:51;9.80;99.90
13426;DHT22;6785;57.918;12.530;2024-02-16T12:33:18;9.90;99.90
13426;DHT22;6785;57.918;12.530;2024-02-16T12:35:45;9.80;99.90
13426;DHT22;6785;57.918;12.530;2024-02-16T12:38:13;9.80;99.90
13426;DHT22;6785;57.918;12.530;2024-02-16T12:40:42;9.90;99.90
13426;DHT22;6785;57.918;12.530;2024-02-16T12:43:09;9.90;99.90
13426;DHT22;6785;57.918;12.530;2024-02-16T12:45:38;10.00;99.90
13426;DHT22;6785;57.918;12.530;2024-02-16T12:48:05;10.00;99.90
13426;DHT22;6785;57.918;12.530;2024-02-16T12:50:32;9.90;99.90
13426;DHT22;6785;57.918;12.530;2024-02-16T12:52:59;9.80;99.90
13426;DHT22;6785;57.918;12.530;2024-02-16T12:55:28;9.90;99.90
13426;DHT22;6785;57.918;12.530;2024-02-16T12:57:56;9.90;99.90
13426;DHT22;6785;57.918;12.530;2024-02-16T13:00:23;9.90;99.90
13426;DHT22;6785;57.918;12.530;2024-02-16T13:02:50;9.90;99.90
13426;DHT22;6785;57.918;12.530;2024-02-16T13:05:17;9.80;99.90
13426;DHT22;6785;57.918;12.530;2024-02-16T13:07:44;9.90;99.90
13426;DHT22;6785;57.918;12.530;2024-02-16T13:10:11;9.90;99.90
13426;DHT22;6785;57.918;12.530;2024-02-16T13:12:39;9.80;99.90
13426;DHT22;6785;57.918;12.530;2024-02-16T13:15:08;9.90;99.90
13426;DHT22;6785;57.918;12.530;2024-02-16T13:17:35;9.90;99.90
13426;DHT22;6785;57.918;12.530;2024-02-16T13:20:03;9.90;99.90
13426;DHT22;6785;57.918;12.530;2024-02-16T13:22:35;9.80;99.90
13426;DHT22;6785;57.918;12.530;2024-02-16T13:25:03;9.70;99.90
13426;DHT22;6785;57.918;12.530;2024-02-16T13:27:31;9.80;99.90
13426;DHT22;6785;57.918;12.530;2024-02-16T13:29:59;9.70;99.90
13426;DHT22;6785;57.918;12.530;2024-02-16T13:32:26;9.80;99.90
13426;DHT22;6785;57.918;12.530;2024-02-16T13:34:52;9.80;99.90
13426;DHT22;6785;57.918;12.530;2024-02-16T13:37:19;9.80;99.90
13426;DHT22;6785;57.918;12.530;2024-02-16T13:39:46;9.80;99.90
13426;DHT22;6785;57.918;12.530;2024-02-16T13:42:13;9.70;99.90
13426;DHT22;6785;57.918;12.530;2024-02-16T13:44:40;9.70;99.90
13426;DHT22;6785;57.918;12.530;2024-02-16T13:47:08;9.60;99.90
13426;DHT22;6785;57.918;12.530;2024-02-16T13:49:35;9.60;99.90
13426;DHT22;6785;57.918;12.530;2024-02-16T13:52:02;9.60;99.90
13426;DHT22;6785;57.918;12.530;2024-02-16T13:54:29;9.60;99.90
13426;DHT22;6785;57.918;12.530;2024-02-16T13:56:56;9.60;99.90
13426;DHT22;6785;57.918;12.530;2024-02-16T13:59:26;9.60;99.90
13426;DHT22;6785;57.918;12.530;2024-02-16T14:01:53;9.50;99.90
13426;DHT22;6785;57.918;12.530;2024-02-16T14:04:21;9.50;99.90
13426;DHT22;6785;57.918;12.530;2024-02-16T14:06:49;9.50;99.90
13426;DHT22;6785;57.918;12.530;2024-02-16T14:09:16;9.40;99.90
13426;DHT22;6785;57.918;12.530;2024-02-16T14:11:45;9.30;99.90
13426;DHT22;6785;57.918;12.530;2024-02-16T14:14:12;9.30;99.90
13426;DHT22;6785;57.918;12.530;2024-02-16T14:16:39;9.30;99.90
13426;DHT22;6785;57.918;12.530;2024-02-16T14:19:06;9.30;99.90
13426;DHT22;6785;57.918;12.530;2024-02-16T14:21:34;9.30;99.90
13426;DHT22;6785;57.918;12.530;2024-02-16T14:24:01;9.20;99.90
13426;DHT22;6785;57.918;12.530;2024-02-16T14:26:28;9.20;99.90
13426;DHT22;6785;57.918;12.530;2024-02-16T14:28:56;9.20;99.90
13426;DHT22;6785;57.918;12.530;2024-02-16T14:31:23;9.20;99.90
13426;DHT22;6785;57.918;12.530;2024-02-16T14:33:49;9.20;99.90
13426;DHT22;6785;57.918;12.530;2024-02-16T14:36:16;9.10;99.90
13426;DHT22;6785;57.918;12.530;2024-02-16T14:38:44;9.10;99.90
13426;DHT22;6785;57.918;12.530;2024-02-16T14:41:11;9.20;99.90
13426;DHT22;6785;57.918;12.530;2024-02-16T14:43:39;9.10;99.90
13426;DHT22;6785;57.918;12.530;2024-02-16T14:46:06;9.10;99.90
13426;DHT22;6785;57.918;12.530;2024-02-16T14:48:34;9.10;99.90
13426;DHT22;6785;57.918;12.530;2024-02-16T14:51:01;9.10;99.90
13426;DHT22;6785;57.918;12.530;2024-02-16T14:53:28;9.10;99.90
13426;DHT22;6785;57.918;12.530;2024-02-16T14:55:58;9.10;99.90
13426;DHT22;6785;57.918;12.530;2024-02-16T14:58:24;9.00;99.90
13426;DHT22;6785;57.918;12.530;2024-02-16T15:00:52;9.10;99.90
13426;DHT22;6785;57.918;12.530;2024-02-16T15:03:19;9.00;99.90
13426;DHT22;6785;57.918;12.530;2024-02-16T15:05:46;9.10;99.90
13426;DHT22;6785;57.918;12.530;2024-02-16T15:08:13;9.00;99.90
13426;DHT22;6785;57.918;12.530;2024-02-16T15:10:40;9.00;99.90
13426;DHT22;6785;57.918;12.530;2024-02-16T15:13:09;9.10;99.90
13426;DHT22;6785;57.918;12.530;2024-02-16T15:15:36;9.10;99.90
13426;DHT22;6785;57.918;12.530;2024-02-16T15:18:04;9.10;99.90
13426;DHT22;6785;57.918;12.530;2024-02-16T15:20:31;9.00;99.90
13426;DHT22;6785;57.918;12.530;2024-02-16T15:22:58;9.10;99.90
13426;DHT22;6785;57.918;12.530;2024-02-16T15:25:24;9.10;99.90
13426;DHT22;6785;57.918;12.530;2024-02-16T15:27:52;9.10;99.90
13426;DHT22;6785;57.918;12.530;2024-02-16T15:30:21;9.10;99.90
13426;DHT22;6785;57.918;12.530;2024-02-16T15:32:47;9.10;99.90
13426;DHT22;6785;57.918;12.530;2024-02-16T15:35:14;9.10;99.90
13426;DHT22;6785;57.918;12.530;2024-02-16T15:37:42;9.10;99.90
13426;DHT22;6785;57.918;12.530;2024-02-16T15:40:11;9.10;99.90
13426;DHT22;6785;57.918;12.530;2024-02-16T15:42:39;9.10;99.90
13426;DHT22;6785;57.918;12.530;2024-02-16T15:45:08;9.10;99.90